sensor_id;sensor_type;location;lat;lon;timestamp;temperature;humidity
9808;DHT22;4943;52.550;13.462;2024-03-02T00:01:23;10.90;99.90
9808;DHT22;4943;52.550;13.462;2024-03-02T00:03:51;10.90;99.90
9808;DHT22;4943;52.550;13.462;2024-03-02T00:06:20;10.90;99.90
9808;DHT22;4943;52.550;13.462;2024-03-02T00:08:48;10.90;99.90
9808;DHT22;4943;52.550;13.462;2024-03-02T00:11:18;10.90;99.90
9808;DHT22;4943;52.550;13.462;2024-03-02T00:13:46;10.90;99.90
9808;DHT22;4943;52.550;13.462;2024-03-02T00:16:15;10.90;99.90
9808;DHT22;4943;52.550;13.462;2024-03-02T00:18:45;10.90;99.90
9808;DHT22;4943;52.550;13.462;2024-03-02T00:21:13;10.80;99.90
9808;DHT22;4943;52.550;13.462;2024-03-02T00:23:45;10.80;99.90
9808;DHT22;4943;52.550;13.462;2024-03-02T00:26:13;10.80;99.90
9808;DHT22;4943;52.550;13.462;2024-03-02T00:28:44;10.80;99.90
9808;DHT22;4943;52.550;13.462;2024-03-02T00:31:12;10.90;99.90
9808;DHT22;4943;52.550;13.462;2024-03-02T00:33:41;10.90;99.90
9808;DHT22;4943;52.550;13.462;2024-03-02T00:36:11;10.90;99.90
9808;DHT22;4943;52.550;13.462;2024-03-02T00:38:47;10.90;99.90
9808;DHT22;4943;52.550;13.462;2024-03-02T00:41:19;10.90;99.90
9808;DHT22;4943;52.550;13.462;2024-03-02T00:43:57;10.90;99.90
9808;DHT22;4943;52.550;13.462;2024-03-02T00:46:27;10.90;99.90
9808;DHT22;4943;52.550;13.462;2024-03-02T00:48:58;11.00;99.90
9808;DHT22;4943;52.550;13.462;2024-03-02T00:51:29;10.90;99.90
9808;DHT22;4943;52.550;13.462;2024-03-02T00:53:59;11.00;99.90
9808;DHT22;4943;52.550;13.462;2024-03-02T00:56:28;10.90;99.90
9808;DHT22;4943;52.550;13.462;2024-03-02T00:58:57;11.00;99.90
9808;DHT22;4943;52.550;13.462;2024-03-02T01:01:25;10.90;99.90
9808;DHT22;4943;52.550;13.462;2024-03-02T01:03:54;10.90;99.90
9808;DHT22;4943;52.550;13.462;2024-03-02T01:06:22;10.90;99.90
9808;DHT22;4943;52.550;13.462;2024-03-02T01:08:51;10.90;99.90
9808;DHT22;4943;52.550;13.462;2024-03-02T01:11:20;10.90;99.90
9808;DHT22;4943;52.550;13.462;2024-03-02T01:13:50;10.90;99.90
9808;DHT22;4943;52.550;13.462;2024-03-02T01:16:20;10.90;99.90
9808;DHT22;4943;52.550;13.462;2024-03-02T01:18:48;10.90;99.90
9808;DHT22;4943;52.550;13.462;2024-03-02T01:21:19;10.90;99.90
9808;DHT22;4943;52.550;13.462;2024-03-02T01:23:47;11.00;99.90
9808;DHT22;4943;52.550;13.462;2024-03-02T01:26:14;11.00;99.90
9808;DHT22;4943;52.550;13.462;2024-03-02T01:28:42;11.00;99.90
9808;DHT22;4943;52.550;13.462;2024-03-02T01:31:10;11.00;99.90
9808;DHT22;4943;52.550;13.462;2024-03-02T01:33:40;11.00;99.90
9808;DHT22;4943;52.550;13.462;2024-03-02T01:36:08;11.00;99.90
9808;DHT22;4943;52.550;13.462;2024-03-02T01:38:36;11.00;99.90
9808;DHT22;4943;52.550;13.462;2024-03-02T01:41:04;11.10;99.90
9808;DHT22;4943;52.550;13.462;2024-03-02T01:43:32;11.10;99.90
9808;DHT22;4943;52.550;13.462;2024-03-02T01:46:03;11.10;99.90
9808;DHT22;4943;52.550;13.462;2024-03-02T01:48:31;11.00;99.90
9808;DHT22;4943;52.550;13.462;2024-03-02T01:51:01;11.00;99.90
9808;DHT22;4943;52.550;13.462;2024-03-02T01:53:29;11.00;99.90
9808;DHT22;4943;52.550;13.462;2024-03-02T01:55:57;11.10;99.90
9808;DHT22;4943;52.550;13.462;2024-03-02T01:58:25;11.10;99.90
9808;DHT22;4943;52.550;13.462;2024-03-02T02:00:53;11.00;99.90
9808;DHT22;4943;52.550;13.462;2024-03-02T02:03:21;11.10;99.90
9808;DHT22;4943;52.550;13.462;2024-03-02T02:05:49;11.00;99.90
9808;DHT22;4943;52.550;13.462;2024-03-02T02:08:19;11.10;99.90
9808;DHT22;4943;52.550;13.462;2024-03-02T02:10:47;11.00;99.90
9808;DHT22;4943;52.550;13.462;2024-03-02T02:13:15;11.00;99.90
9808;DHT22;4943;52.550;13.462;2024-03-02T02:15:43;11.00;99.90
9808;DHT22;4943;52.550;13.462;2024-03-02T02:18:12;11.00;99.90
9808;DHT22;4943;52.550;13.462;2024-03-02T02:20:40;11.00;99.90
9808;DHT22;4943;52.550;13.462;2024-03-02T02:23:09;11.00;99.90
9808;DHT22;4943;52.550;13.462;2024-03-02T02:25:37;11.10;99.90
9808;DHT22;4943;52.550;13.462;2024-03-02T02:28:05;11.10;99.90
9808;DHT22;4943;52.550;13.462;2024-03-02T02:30:33;11.10;99.90
9808;DHT22;4943;52.550;13.462;2024-03-02T02:33:02;11.10;99.90
9808;DHT22;4943;52.550;13.462;2024-03-02T02:35:30;11.10;99.90
9808;DHT22;4943;52.550;13.462;2024-03-02T02:37:58;11.10;99.90
9808;DHT22;4943;52.550;13.462;2024-03-02T02:40:28;11.10;99.90
9808;DHT22;4943;52.550;13.462;2024-03-02T02:42:57;11.10;99.90
9808;DHT22;4943;52.550;13.462;2024-03-02T02:45:25;11.10;99.90
9808;DHT22;4943;52.550;13.462;2024-03-02T02:47:54;11.10;99.90
9808;DHT22;4943;52.550;13.462;2024-03-02T02:50:22;11.10;99.90
9808;DHT22;4943;52.550;13.462;2024-03-02T02:52:50;11.00;99.90
9808;DHT22;4943;52.550;13.462;2024-03-02T02:55:18;11.10;99.90
9808;DHT22;4943;52.550;13.462;2024-03-02T02:57:47;11.10;99.90
9808;DHT22;4943;52.550;13.462;2024-03-02T03:00:16;11.10;99.90
9808;DHT22;4943;52.550;13.462;2024-03-02T03:02:48;11.20;99.90
9808;DHT22;4943;52.550;13.462;2024-03-02T03:05:18;11.20;99.90
9808;DHT22;4943;52.550;13.462;2024-03-02T03:07:46;11.20;99.90
9808;DHT22;4943;52.550;13.462;2024-03-02T03:10:16;11.20;99.90
9808;DHT22;4943;52.550;13.462;2024-03-02T03:12:46;11.30;99.90
9808;DHT22;4943;52.550;13.462;2024-03-02T03:15:15;11.30;99.90
9808;DHT22;4943;52.550;13.462;2024-03-02T03:17:44;11.30;99.90
9808;DHT22;4943;52.550;13.462;2024-03-02T03:20:13;11.40;99.90
9808;DHT22;4943;52.550;13.462;2024-03-02T03:22:42;11.40;99.90
9808;DHT22;4943;52.550;13.462;2024-03-02T03:25:10;11.40;99.90
9808;DHT22;4943;52.550;13.462;2024-03-02T03:27:38;11.40;99.90
9808;DHT22;4943;52.550;13.462;2024-03-02T03:30:08;11.50;99.90
9808;DHT22;4943;52.550;13.462;2024-03-02T03:32:36;11.50;99.90
9808;DHT22;4943;52.550;13.462;2024-03-02T03:35:05;11.50;99.90
9808;DHT22;4943;52.550;13.462;2024-03-02T03:37:33;11.50;99.90
9808;DHT22;4943;52.550;13.462;2024-03-02T03:40:02;11.60;99.90
9808;DHT22;4943;52.550;13.462;2024-03-02T03:42:34;11.60;99.90
9808;DHT22;4943;52.550;13.462;2024-03-02T03:45:02;11.60;99.90
9808;DHT22;4943;52.550;13.462;2024-03-02T03:47:33;11.60;99.90
9808;DHT22;4943;52.550;13.462;2024-03-02T03:50:01;11.60;99.90
9808;DHT22;4943;52.550;13.462;2024-03-02T03:52:33;11.60;99.90
9808;DHT22;4943;52.550;13.462;2024-03-02T03:55:01;11.60;99.90
9808;DHT22;4943;52.550;13.462;2024-03-02T03:57:30;11.70;99.90
9808;DHT22;4943;52.550;13.462;2024-03-02T03:59:57;11.70;99.90
9808;DHT22;4943;52.550;13.462;2024-03-02T04:02:27;11.70;99.90
9808;DHT22;4943;52.550;13.462;2024-03-02T04:04:56;11.70;99.90
9808;DHT22;4943;52.550;13.462;2024-03-02T04:07:24;11.70;99.90
9808;DHT22;4943;52.550;13.462;2024-03-02T04:09:52;11.70;99.90
9808;DHT22;4943;52.550;13.462;2024-03-02T04:12:20;11.70;99.90
9808;DHT22;4943;52.550;13.462;2024-03-02T04:14:49;11.70;99.90
9808;DHT22;4943;52.550;13.462;2024-03-02T04:17:17;11.70;99.90
9808;DHT22;4943;52.550;13.462;2024-03-02T04:19:45;11.70;99.90
9808;DHT22;4943;52.550;13.462;2024-03-02T04:22:14;11.70;99.90
9808;DHT22;4943;52.550;13.462;2024-03-02T04:24:51;11.70;99.90
9808;DHT22;4943;52.550;13.462;2024-03-02T04:27:19;11.70;99.90
9808;DHT22;4943;52.550;13.462;2024-03-02T04:29:47;11.70;99.90
9808;DHT22;4943;52.550;13.462;2024-03-02T04:32:15;11.70;99.90
9808;DHT22;4943;52.550;13.462;2024-03-02T04:34:44;11.60;99.90
9808;DHT22;4943;52.550;13.462;2024-03-02T04:37:13;11.60;99.90
9808;DHT22;4943;52.550;13.462;2024-03-02T04:39:41;11.60;99.90
9808;DHT22;4943;52.550;13.462;2024-03-02T04:42:10;11.70;99.90
9808;DHT22;4943;52.550;13.462;2024-03-02T04:44:38;11.70;99.90
9808;DHT22;4943;52.550;13.462;2024-03-02T04:47:06;11.70;99.90
9808;DHT22;4943;52.550;13.462;2024-03-02T04:49:34;11.70;99.90
9808;DHT22;4943;52.550;13.462;2024-03-02T04:52:02;11.70;99.90
9808;DHT22;4943;52.550;13.462;2024-03-02T04:54:32;11.60;99.90
9808;DHT22;4943;52.550;13.462;2024-03-02T04:57:20;11.60;99.90
9808;DHT22;4943;52.550;13.462;2024-03-02T04:59:48;11.60;99.90
9808;DHT22;4943;52.550;13.462;2024-03-02T05:02:16;11.70;99.90
9808;DHT22;4943;52.550;13.462;2024-03-02T05:04:44;11.60;99.90
9808;DHT22;4943;52.550;13.462;2024-03-02T05:07:12;11.70;99.90
9808;DHT22;4943;52.550;13.462;2024-03-02T05:09:42;11.70;99.90
9808;DHT22;4943;52.550;13.462;2024-03-02T05:12:10;11.70;99.90
9808;DHT22;4943;52.550;13.462;2024-03-02T05:14:56;11.70;99.90
9808;DHT22;4943;52.550;13.462;2024-03-02T05:17:24;11.70;99.90
9808;DHT22;4943;52.550;13.462;2024-03-02T05:19:52;11.70;99.90
9808;DHT22;4943;52.550;13.462;2024-03-02T05:22:20;11.70;99.90
9808;DHT22;4943;52.550;13.462;2024-03-02T05:24:50;11.70;99.90
9808;DHT22;4943;52.550;13.462;2024-03-02T05:27:18;11.70;99.90
9808;DHT22;4943;52.550;13.462;2024-03-02T05:29:46;11.70;99.90
9808;DHT22;4943;52.550;13.462;2024-03-02T05:32:14;11.70;99.90
9808;DHT22;4943;52.550;13.462;2024-03-02T05:34:42;11.70;99.90
9808;DHT22;4943;52.550;13.462;2024-03-02T05:37:10;11.70;99.90
9808;DHT22;4943;52.550;13.462;2024-03-02T05:39:39;11.70;99.90
9808;DHT22;4943;52.550;13.462;2024-03-02T05:42:08;11.60;99.90
9808;DHT22;4943;52.550;13.462;2024-03-02T05:44:36;11.60;99.90
9808;DHT22;4943;52.550;13.462;2024-03-02T05:47:05;11.60;99.90
9808;DHT22;4943;52.550;13.462;2024-03-02T05:49:35;11.60;99.90
9808;DHT22;4943;52.550;13.462;2024-03-02T05:52:04;11.60;99.90
9808;DHT22;4943;52.550;13.462;2024-03-02T05:54:32;11.60;99.90
9808;DHT22;4943;52.550;13.462;2024-03-02T05:57:00;11.60;99.90
9808;DHT22;4943;52.550;13.462;2024-03-02T05:59:45;11.60;99.90
9808;DHT22;4943;52.550;13.462;2024-03-02T06:02:13;11.60;99.90
9808;DHT22;4943;52.550;13.462;2024-03-02T06:04:41;11.60;99.90
9808;DHT22;4943;52.550;13.462;2024-03-02T06:07:09;11.60;99.90
9808;DHT22;4943;52.550;13.462;2024-03-02T06:09:37;11.60;99.90
9808;DHT22;4943;52.550;13.462;2024-03-02T06:12:06;11.70;99.90
9808;DHT22;4943;52.550;13.462;2024-03-02T06:14:34;11.70;99.90
9808;DHT22;4943;52.550;13.462;2024-03-02T06:17:03;11.70;99.90
9808;DHT22;4943;52.550;13.462;2024-03-02T06:19:32;11.60;99.90
9808;DHT22;4943;52.550;13.462;2024-03-02T06:22:00;11.70;99.90
9808;DHT22;4943;52.550;13.462;2024-03-02T06:24:28;11.70;99.90
9808;DHT22;4943;52.550;13.462;2024-03-02T06:26:56;11.70;99.90
9808;DHT22;4943;52.550;13.462;2024-03-02T06:29:24;11.70;99.90
9808;DHT22;4943;52.550;13.462;2024-03-02T06:31:52;11.70;99.90
9808;DHT22;4943;52.550;13.462;2024-03-02T06:34:22;11.80;99.90
9808;DHT22;4943;52.550;13.462;2024-03-02T06:36:50;11.80;99.90
9808;DHT22;4943;52.550;13.462;2024-03-02T06:39:18;11.80;99.90
9808;DHT22;4943;52.550;13.462;2024-03-02T06:41:47;11.80;99.90
9808;DHT22;4943;52.550;13.462;2024-03-02T06:44:15;11.80;99.90
9808;DHT22;4943;52.550;13.462;2024-03-02T06:46:43;11.90;99.90
9808;DHT22;4943;52.550;13.462;2024-03-02T06:49:11;11.90;99.90
9808;DHT22;4943;52.550;13.462;2024-03-02T06:51:40;11.90;99.90
9808;DHT22;4943;52.550;13.462;2024-03-02T06:54:09;11.90;99.90
9808;DHT22;4943;52.550;13.462;2024-03-02T06:56:37;11.90;99.90
9808;DHT22;4943;52.550;13.462;2024-03-02T06:59:05;12.00;99.90
9808;DHT22;4943;52.550;13.462;2024-03-02T07:01:34;12.00;99.90
9808;DHT22;4943;52.550;13.462;2024-03-02T07:04:02;12.00;99.90
9808;DHT22;4943;52.550;13.462;2024-03-02T07:06:33;12.00;99.90
9808;DHT22;4943;52.550;13.462;2024-03-02T07:09:03;12.10;99.90
9808;DHT22;4943;52.550;13.462;2024-03-02T07:11:32;12.10;99.90
9808;DHT22;4943;52.550;13.462;2024-03-02T07:14:01;12.10;99.90
9808;DHT22;4943;52.550;13.462;2024-03-02T07:16:30;12.10;99.90
9808;DHT22;4943;52.550;13.462;2024-03-02T07:18:59;12.20;99.90
9808;DHT22;4943;52.550;13.462;2024-03-02T07:21:28;12.10;99.90
9808;DHT22;4943;52.550;13.462;2024-03-02T07:23:56;12.20;99.90
9808;DHT22;4943;52.550;13.462;2024-03-02T07:26:26;12.20;99.90
9808;DHT22;4943;52.550;13.462;2024-03-02T07:28:57;12.20;99.90
9808;DHT22;4943;52.550;13.462;2024-03-02T07:31:25;12.20;99.90
9808;DHT22;4943;52.550;13.462;2024-03-02T07:33:53;12.30;99.90
9808;DHT22;4943;52.550;13.462;2024-03-02T07:36:22;12.30;99.90
9808;DHT22;4943;52.550;13.462;2024-03-02T07:38:50;12.30;99.90
9808;DHT22;4943;52.550;13.462;2024-03-02T07:41:18;12.30;99.90
9808;DHT22;4943;52.550;13.462;2024-03-02T07:43:48;12.30;99.90
9808;DHT22;4943;52.550;13.462;2024-03-02T07:46:16;12.30;99.90
9808;DHT22;4943;52.550;13.462;2024-03-02T07:48:44;12.30;99.90
9808;DHT22;4943;52.550;13.462;2024-03-02T07:51:12;12.40;99.90
9808;DHT22;4943;52.550;13.462;2024-03-02T07:53:41;12.40;99.90
9808;DHT22;4943;52.550;13.462;2024-03-02T07:56:10;12.40;99.90
9808;DHT22;4943;52.550;13.462;2024-03-02T07:58:38;12.40;99.90
9808;DHT22;4943;52.550;13.462;2024-03-02T08:01:07;12.40;99.90
9808;DHT22;4943;52.550;13.462;2024-03-02T08:03:36;12.40;99.90
9808;DHT22;4943;52.550;13.462;2024-03-02T08:06:05;12.30;99.90
9808;DHT22;4943;52.550;13.462;2024-03-02T08:08:33;12.30;99.90
9808;DHT22;4943;52.550;13.462;2024-03-02T08:11:01;12.40;99.90
9808;DHT22;4943;52.550;13.462;2024-03-02T08:13:29;12.40;99.90
9808;DHT22;4943;52.550;13.462;2024-03-02T08:15:57;12.40;99.90
9808;DHT22;4943;52.550;13.462;2024-03-02T08:18:27;12.50;99.90
9808;DHT22;4943;52.550;13.462;2024-03-02T08:20:56;12.50;99.90
9808;DHT22;4943;52.550;13.462;2024-03-02T08:23:24;12.60;99.90
9808;DHT22;4943;52.550;13.462;2024-03-02T08:25:52;12.70;99.90
9808;DHT22;4943;52.550;13.462;2024-03-02T08:28:20;12.70;99.90
9808;DHT22;4943;52.550;13.462;2024-03-02T08:30:48;12.70;99.90
9808;DHT22;4943;52.550;13.462;2024-03-02T08:33:16;12.80;99.90
9808;DHT22;4943;52.550;13.462;2024-03-02T08:35:46;12.90;99.90
9808;DHT22;4943;52.550;13.462;2024-03-02T08:38:14;12.90;99.90
9808;DHT22;4943;52.550;13.462;2024-03-02T08:40:43;12.90;99.90
9808;DHT22;4943;52.550;13.462;2024-03-02T08:43:11;13.00;99.90
9808;DHT22;4943;52.550;13.462;2024-03-02T08:45:40;13.00;99.90
9808;DHT22;4943;52.550;13.462;2024-03-02T08:48:08;12.90;99.90
9808;DHT22;4943;52.550;13.462;2024-03-02T08:50:37;12.90;99.90
9808;DHT22;4943;52.550;13.462;2024-03-02T08:53:06;12.90;99.90
9808;DHT22;4943;52.550;13.462;2024-03-02T08:55:34;12.90;99.90
9808;DHT22;4943;52.550;13.462;2024-03-02T08:58:02;12.90;99.90
9808;DHT22;4943;52.550;13.462;2024-03-02T09:00:31;12.90;99.90
9808;DHT22;4943;52.550;13.462;2024-03-02T09:02:59;12.90;99.90
9808;DHT22;4943;52.550;13.462;2024-03-02T09:05:27;12.90;99.90
9808;DHT22;4943;52.550;13.462;2024-03-02T09:07:55;12.90;99.90
9808;DHT22;4943;52.550;13.462;2024-03-02T09:10:25;12.90;99.90
9808;DHT22;4943;52.550;13.462;2024-03-02T09:12:54;13.00;99.90
9808;DHT22;4943;52.550;13.462;2024-03-02T09:15:23;13.00;99.90
9808;DHT22;4943;52.550;13.462;2024-03-02T09:17:51;13.00;99.90
9808;DHT22;4943;52.550;13.462;2024-03-02T09:20:19;13.10;99.90
9808;DHT22;4943;52.550;13.462;2024-03-02T09:22:47;13.10;99.90
9808;DHT22;4943;52.550;13.462;2024-03-02T09:25:15;13.10;99.90
9808;DHT22;4943;52.550;13.462;2024-03-02T09:27:45;13.20;99.90
9808;DHT22;4943;52.550;13.462;2024-03-02T09:30:13;13.20;99.90
9808;DHT22;4943;52.550;13.462;2024-03-02T09:32:42;13.30;99.90
9808;DHT22;4943;52.550;13.462;2024-03-02T09:35:12;13.30;99.90
9808;DHT22;4943;52.550;13.462;2024-03-02T09:37:40;13.40;99.90
9808;DHT22;4943;52.550;13.462;2024-03-02T09:40:09;13.50;99.90
9808;DHT22;4943;52.550;13.462;2024-03-02T09:42:38;13.50;99.90
9808;DHT22;4943;52.550;13.462;2024-03-02T09:45:09;13.60;99.90
9808;DHT22;4943;52.550;13.462;2024-03-02T09:47:37;13.80;99.90
9808;DHT22;4943;52.550;13.462;2024-03-02T09:50:07;13.90;99.90
9808;DHT22;4943;52.550;13.462;2024-03-02T09:52:36;14.00;99.90
9808;DHT22;4943;52.550;13.462;2024-03-02T09:55:05;14.10;99.90
9808;DHT22;4943;52.550;13.462;2024-03-02T09:57:34;14.20;99.90
9808;DHT22;4943;52.550;13.462;2024-03-02T10:00:05;14.40;99.90
9808;DHT22;4943;52.550;13.462;2024-03-02T10:02:35;14.50;99.90
9808;DHT22;4943;52.550;13.462;2024-03-02T10:05:03;14.60;99.90
9808;DHT22;4943;52.550;13.462;2024-03-02T10:07:32;14.70;99.90
9808;DHT22;4943;52.550;13.462;2024-03-02T10:10:12;14.70;99.90
9808;DHT22;4943;52.550;13.462;2024-03-02T10:12:41;14.80;99.90
9808;DHT22;4943;52.550;13.462;2024-03-02T10:15:09;14.80;99.90
9808;DHT22;4943;52.550;13.462;2024-03-02T10:17:39;14.90;99.90
9808;DHT22;4943;52.550;13.462;2024-03-02T10:20:24;14.90;99.90
9808;DHT22;4943;52.550;13.462;2024-03-02T10:22:52;15.00;99.90
9808;DHT22;4943;52.550;13.462;2024-03-02T10:25:30;15.00;99.90
9808;DHT22;4943;52.550;13.462;2024-03-02T10:28:16;15.10;99.90
9808;DHT22;4943;52.550;13.462;2024-03-02T10:30:47;15.20;99.90
9808;DHT22;4943;52.550;13.462;2024-03-02T10:33:17;15.20;99.90
9808;DHT22;4943;52.550;13.462;2024-03-02T10:35:48;15.20;99.90
9808;DHT22;4943;52.550;13.462;2024-03-02T10:38:17;15.30;99.90
9808;DHT22;4943;52.550;13.462;2024-03-02T10:40:47;15.30;99.90
9808;DHT22;4943;52.550;13.462;2024-03-02T10:43:15;15.40;99.90
9808;DHT22;4943;52.550;13.462;2024-03-02T10:45:46;15.50;99.90
9808;DHT22;4943;52.550;13.462;2024-03-02T10:48:17;15.60;99.90
9808;DHT22;4943;52.550;13.462;2024-03-02T10:50:46;15.60;99.90
9808;DHT22;4943;52.550;13.462;2024-03-02T10:53:14;15.70;99.90
9808;DHT22;4943;52.550;13.462;2024-03-02T10:55:42;15.70;99.90
9808;DHT22;4943;52.550;13.462;2024-03-02T10:58:12;15.70;99.90
9808;DHT22;4943;52.550;13.462;2024-03-02T11:00:43;15.70;99.90
9808;DHT22;4943;52.550;13.462;2024-03-02T11:03:13;15.80;99.90
9808;DHT22;4943;52.550;13.462;2024-03-02T11:05:44;15.80;99.90
9808;DHT22;4943;52.550;13.462;2024-03-02T11:08:18;15.80;99.90
9808;DHT22;4943;52.550;13.462;2024-03-02T11:10:50;15.80;99.90
9808;DHT22;4943;52.550;13.462;2024-03-02T11:13:22;15.80;99.90
9808;DHT22;4943;52.550;13.462;2024-03-02T11:15:55;15.80;99.90
9808;DHT22;4943;52.550;13.462;2024-03-02T11:18:27;15.70;99.90
9808;DHT22;4943;52.550;13.462;2024-03-02T11:20:57;15.70;99.90
9808;DHT22;4943;52.550;13.462;2024-03-02T11:23:32;15.60;99.90
9808;DHT22;4943;52.550;13.462;2024-03-02T11:26:19;15.50;99.90
9808;DHT22;4943;52.550;13.462;2024-03-02T11:28:50;15.50;99.90
9808;DHT22;4943;52.550;13.462;2024-03-02T11:31:18;15.40;99.90
9808;DHT22;4943;52.550;13.462;2024-03-02T11:33:46;15.40;99.90
9808;DHT22;4943;52.550;13.462;2024-03-02T11:36:16;15.40;99.90
9808;DHT22;4943;52.550;13.462;2024-03-02T11:38:44;15.50;99.90
9808;DHT22;4943;52.550;13.462;2024-03-02T11:41:14;15.50;99.90
9808;DHT22;4943;52.550;13.462;2024-03-02T11:43:42;15.60;99.90
9808;DHT22;4943;52.550;13.462;2024-03-02T11:46:12;15.60;99.90
9808;DHT22;4943;52.550;13.462;2024-03-02T11:48:40;15.70;99.90
9808;DHT22;4943;52.550;13.462;2024-03-02T11:51:08;15.80;99.90
9808;DHT22;4943;52.550;13.462;2024-03-02T11:53:39;15.80;99.90
9808;DHT22;4943;52.550;13.462;2024-03-02T11:56:09;15.90;99.90
9808;DHT22;4943;52.550;13.462;2024-03-02T11:58:40;16.00;99.90
9808;DHT22;4943;52.550;13.462;2024-03-02T12:01:10;16.10;99.90
9808;DHT22;4943;52.550;13.462;2024-03-02T12:03:40;16.20;99.90
9808;DHT22;4943;52.550;13.462;2024-03-02T12:06:09;16.30;99.90
9808;DHT22;4943;52.550;13.462;2024-03-02T12:08:38;16.50;99.90
9808;DHT22;4943;52.550;13.462;2024-03-02T12:11:07;16.70;99.90
9808;DHT22;4943;52.550;13.462;2024-03-02T12:13:35;16.80;99.90
9808;DHT22;4943;52.550;13.462;2024-03-02T12:16:04;16.90;99.90
9808;DHT22;4943;52.550;13.462;2024-03-02T12:18:32;17.00;99.90
9808;DHT22;4943;52.550;13.462;2024-03-02T12:21:00;17.10;99.90
9808;DHT22;4943;52.550;13.462;2024-03-02T12:23:29;17.20;99.90
9808;DHT22;4943;52.550;13.462;2024-03-02T12:25:59;17.20;99.90
9808;DHT22;4943;52.550;13.462;2024-03-02T12:28:27;17.30;99.90
9808;DHT22;4943;52.550;13.462;2024-03-02T12:31:00;17.30;99.90
9808;DHT22;4943;52.550;13.462;2024-03-02T12:33:29;17.40;99.90
9808;DHT22;4943;52.550;13.462;2024-03-02T12:35:57;17.50;99.90
9808;DHT22;4943;52.550;13.462;2024-03-02T12:38:26;17.50;99.90
9808;DHT22;4943;52.550;13.462;2024-03-02T12:40:56;17.60;99.90
9808;DHT22;4943;52.550;13.462;2024-03-02T12:43:30;17.60;99.90
9808;DHT22;4943;52.550;13.462;2024-03-02T12:45:58;17.70;99.90
9808;DHT22;4943;52.550;13.462;2024-03-02T12:48:26;17.70;99.90
9808;DHT22;4943;52.550;13.462;2024-03-02T12:50:54;17.70;99.90
9808;DHT22;4943;52.550;13.462;2024-03-02T12:53:23;17.70;99.90
9808;DHT22;4943;52.550;13.462;2024-03-02T12:55:51;17.80;99.90
9808;DHT22;4943;52.550;13.462;2024-03-02T12:58:22;17.80;99.90
9808;DHT22;4943;52.550;13.462;2024-03-02T13:01:05;17.90;99.90
9808;DHT22;4943;52.550;13.462;2024-03-02T13:03:36;17.90;99.90
9808;DHT22;4943;52.550;13.462;2024-03-02T13:06:06;18.00;99.90
9808;DHT22;4943;52.550;13.462;2024-03-02T13:08:34;18.10;99.90
9808;DHT22;4943;52.550;13.462;2024-03-02T13:11:03;18.10;99.90
9808;DHT22;4943;52.550;13.462;2024-03-02T13:13:34;18.10;99.90
9808;DHT22;4943;52.550;13.462;2024-03-02T13:16:04;18.10;99.90
9808;DHT22;4943;52.550;13.462;2024-03-02T13:18:33;18.10;99.90
9808;DHT22;4943;52.550;13.462;2024-03-02T13:21:02;18.10;99.90
9808;DHT22;4943;52.550;13.462;2024-03-02T13:23:30;18.10;99.90
9808;DHT22;4943;52.550;13.462;2024-03-02T13:25:58;18.10;99.90
9808;DHT22;4943;52.550;13.462;2024-03-02T13:28:26;18.10;99.90
9808;DHT22;4943;52.550;13.462;2024-03-02T13:30:54;18.00;99.90
9808;DHT22;4943;52.550;13.462;2024-03-02T13:33:24;18.00;99.90
9808;DHT22;4943;52.550;13.462;2024-03-02T13:35:52;17.90;99.90
9808;DHT22;4943;52.550;13.462;2024-03-02T13:38:20;17.80;99.90
9808;DHT22;4943;52.550;13.462;2024-03-02T13:40:49;17.70;99.90
9808;DHT22;4943;52.550;13.462;2024-03-02T13:43:18;17.70;99.90
9808;DHT22;4943;52.550;13.462;2024-03-02T13:45:46;17.60;99.90
9808;DHT22;4943;52.550;13.462;2024-03-02T13:48:15;17.50;99.90
9808;DHT22;4943;52.550;13.462;2024-03-02T13:50:44;17.50;99.90
9808;DHT22;4943;52.550;13.462;2024-03-02T13:53:13;17.50;99.90
9808;DHT22;4943;52.550;13.462;2024-03-02T13:55:41;17.50;99.90
9808;DHT22;4943;52.550;13.462;2024-03-02T13:58:10;17.60;99.90
9808;DHT22;4943;52.550;13.462;2024-03-02T14:00:38;17.60;99.90
9808;DHT22;4943;52.550;13.462;2024-03-02T14:03:09;17.60;99.90
9808;DHT22;4943;52.550;13.462;2024-03-02T14:05:37;17.60;99.90
9808;DHT22;4943;52.550;13.462;2024-03-02T14:08:07;17.60;99.90
9808;DHT22;4943;52.550;13.462;2024-03-02T14:10:35;17.60;99.90
9808;DHT22;4943;52.550;13.462;2024-03-02T14:13:03;17.60;99.90
9808;DHT22;4943;52.550;13.462;2024-03-02T14:15:32;17.50;99.90
9808;DHT22;4943;52.550;13.462;2024-03-02T14:18:00;17.50;99.90
9808;DHT22;4943;52.550;13.462;2024-03-02T14:20:28;17.50;99.90
9808;DHT22;4943;52.550;13.462;2024-03-02T14:22:56;17.50;99.90
9808;DHT22;4943;52.550;13.462;2024-03-02T14:25:27;17.50;99.90
9808;DHT22;4943;52.550;13.462;2024-03-02T14:27:58;17.50;99.90
9808;DHT22;4943;52.550;13.462;2024-03-02T14:30:46;17.50;99.90
9808;DHT22;4943;52.550;13.462;2024-03-02T14:33:14;17.40;99.90
9808;DHT22;4943;52.550;13.462;2024-03-02T14:35:44;17.30;99.90
9808;DHT22;4943;52.550;13.462;2024-03-02T14:38:13;17.30;99.90
9808;DHT22;4943;52.550;13.462;2024-03-02T14:40:43;17.30;99.90
9808;DHT22;4943;52.550;13.462;2024-03-02T14:43:11;17.20;99.90
9808;DHT22;4943;52.550;13.462;2024-03-02T14:45:40;17.10;99.90
9808;DHT22;4943;52.550;13.462;2024-03-02T14:48:08;17.10;99.90
9808;DHT22;4943;52.550;13.462;2024-03-02T14:50:36;17.00;99.90
9808;DHT22;4943;52.550;13.462;2024-03-02T14:53:05;17.00;99.90
9808;DHT22;4943;52.550;13.462;2024-03-02T14:55:33;16.90;99.90
9808;DHT22;4943;52.550;13.462;2024-03-02T14:58:03;16.90;99.90
9808;DHT22;4943;52.550;13.462;2024-03-02T15:00:31;16.80;99.90
9808;DHT22;4943;52.550;13.462;2024-03-02T15:03:00;16.70;99.90
9808;DHT22;4943;52.550;13.462;2024-03-02T15:05:28;16.70;99.90
9808;DHT22;4943;52.550;13.462;2024-03-02T15:07:56;16.60;99.90
9808;DHT22;4943;52.550;13.462;2024-03-02T15:10:26;16.50;99.90
9808;DHT22;4943;52.550;13.462;2024-03-02T15:12:54;16.50;99.90
9808;DHT22;4943;52.550;13.462;2024-03-02T15:15:23;16.50;99.90
9808;DHT22;4943;52.550;13.462;2024-03-02T15:17:52;16.40;99.90
9808;DHT22;4943;52.550;13.462;2024-03-02T15:20:20;16.30;99.90
9808;DHT22;4943;52.550;13.462;2024-03-02T15:22:48;16.30;99.90
9808;DHT22;4943;52.550;13.462;2024-03-02T15:25:16;16.30;99.90
9808;DHT22;4943;52.550;13.462;2024-03-02T15:27:45;16.30;99.90
9808;DHT22;4943;52.550;13.462;2024-03-02T15:30:13;16.30;99.90
9808;DHT22;4943;52.550;13.462;2024-03-02T15:32:43;16.30;99.90
9808;DHT22;4943;52.550;13.462;2024-03-02T15:35:11;16.30;99.90
9808;DHT22;4943;52.550;13.462;2024-03-02T15:37:40;16.40;99.90
9808;DHT22;4943;52.550;13.462;2024-03-02T15:40:09;16.40;99.90
9808;DHT22;4943;52.550;13.462;2024-03-02T15:42:37;16.40;99.90
9808;DHT22;4943;52.550;13.462;2024-03-02T15:45:09;16.40;99.90
9808;DHT22;4943;52.550;13.462;2024-03-02T15:47:37;16.30;99.90
9808;DHT22;4943;52.550;13.462;2024-03-02T15:50:07;16.30;99.90
9808;DHT22;4943;52.550;13.462;2024-03-02T15:52:36;16.20;99.90
9808;DHT22;4943;52.550;13.462;2024-03-02T15:55:04;16.20;99.90
9808;DHT22;4943;52.550;13.462;2024-03-02T15:57:33;16.10;99.90